Time;durP1;ratioP1;P1;durP2;ratioP2;P2;SDS_P1;SDS_P2;PMS_P1;PMS_P2;Temp;Humidity;BMP_temperature;BMP_pressure;BME280_temperature;BME280_humidity;BME280_pressure;Samples;Min_cycle;Max_cycle;Signal;HPM_P1;HPM_P2
2021/09/12 00:02:06;;;;;;;5.57;5.05;;;15.40;99.90;;;;;;5063752;28;20300;-78
2021/09/12 00:04:32;;;;;;;5.55;5.05;;;15.40;99.90;;;;;;5064961;28;20185;-76
2021/09/12 00:06:57;;;;;;;6.00;5.32;;;15.50;99.90;;;;;;5064289;28;20185;-79
2021/09/12 00:09:23;;;;;;;6.00;5.40;;;15.50;99.90;;;;;;5064586;28;20185;-79
2021/09/12 00:11:49;;;;;;;5.80;4.90;;;15.60;99.90;;;;;;5052450;28;20295;-79
2021/09/12 00:14:14;;;;;;;5.57;5.07;;;15.70;99.90;;;;;;5064691;28;20191;-77
2021/09/12 00:16:40;;;;;;;5.50;5.00;;;15.70;99.90;;;;;;5064883;28;20197;-79
2021/09/12 00:19:06;;;;;;;5.75;5.15;;;15.70;99.90;;;;;;5056917;28;20213;-76
2021/09/12 00:21:31;;;;;;;5.85;5.25;;;15.60;99.90;;;;;;5064737;28;20205;-79
2021/09/12 00:23:57;;;;;;;6.63;5.13;;;15.60;99.90;;;;;;5053793;28;20541;-78
2021/09/12 00:26:22;;;;;;;7.50;5.75;;;15.70;99.90;;;;;;5065098;28;20534;-77
2021/09/12 00:28:48;;;;;;;5.68;5.15;;;15.60;99.90;;;;;;5064500;28;20185;-79
2021/09/12 00:31:14;;;;;;;5.65;5.15;;;15.70;99.90;;;;;;5063871;28;20209;-79
2021/09/12 00:33:39;;;;;;;6.88;4.88;;;15.80;99.90;;;;;;5065039;28;20221;-78
2021/09/12 00:36:05;;;;;;;5.85;5.32;;;15.80;99.90;;;;;;5064512;28;20177;-79
2021/09/12 00:38:31;;;;;;;10.32;4.88;;;15.90;99.90;;;;;;5064819;28;20643;-77
2021/09/12 00:41:00;;;;;;;5.75;4.93;;;15.90;99.90;;;;;;5063920;28;20756;-79
2021/09/12 00:43:26;;;;;;;6.60;5.35;;;16.00;99.90;;;;;;5064624;28;20672;-77
2021/09/12 00:45:57;;;;;;;5.32;4.80;;;16.10;99.90;;;;;;5072961;28;20203;-78
2021/09/12 00:48:23;;;;;;;5.30;4.80;;;16.20;99.90;;;;;;5051413;28;20206;-76
2021/09/12 00:50:50;;;;;;;6.88;5.25;;;16.20;99.90;;;;;;5063484;28;20201;-76
2021/09/12 00:53:17;;;;;;;5.40;4.75;;;16.10;99.90;;;;;;5063637;28;20213;-79
2021/09/12 00:55:45;;;;;;;5.00;4.57;;;16.20;99.90;;;;;;5064336;28;20182;-79
2021/09/12 00:58:18;;;;;;;4.72;4.32;;;16.30;99.90;;;;;;5066281;28;20220;-77
2021/09/12 01:00:44;;;;;;;5.25;4.60;;;16.30;99.90;;;;;;5066845;28;20194;-76
2021/09/12 01:03:10;;;;;;;5.00;4.60;;;16.30;99.90;;;;;;5067244;28;20206;-79
2021/09/12 01:05:37;;;;;;;5.13;4.63;;;16.40;99.90;;;;;;5067702;28;20624;-78
2021/09/12 01:08:03;;;;;;;4.88;4.38;;;16.40;99.90;;;;;;5067422;28;20196;-77
2021/09/12 01:10:29;;;;;;;5.90;5.00;;;16.40;99.90;;;;;;5067313;28;20288;-76
2021/09/12 01:12:54;;;;;;;5.18;4.10;;;16.50;99.90;;;;;;5067146;28;20318;-79
2021/09/12 01:15:20;;;;;;;5.20;4.55;;;16.50;99.90;;;;;;5067166;28;20564;-78
2021/09/12 01:17:46;;;;;;;5.47;4.90;;;16.60;99.90;;;;;;5066779;28;20259;-77
2021/09/12 01:20:12;;;;;;;4.85;4.35;;;16.60;99.90;;;;;;5067144;28;20328;-76
2021/09/12 01:22:38;;;;;;;5.00;4.10;;;16.70;99.90;;;;;;5075797;28;20181;-77
2021/09/12 01:25:04;;;;;;;4.97;4.38;;;16.70;99.90;;;;;;5067563;28;20188;-79
2021/09/12 01:27:30;;;;;;;4.53;3.88;;;16.70;99.90;;;;;;5067755;28;20234;-77
2021/09/12 01:29:55;;;;;;;5.25;4.50;;;16.70;99.90;;;;;;5066061;28;20186;-77
2021/09/12 01:32:24;;;;;;;4.75;4.32;;;16.80;99.90;;;;;;5072796;28;20299;-78
2021/09/12 01:34:50;;;;;;;5.53;5.03;;;16.80;99.90;;;;;;5067064;28;20173;-77
2021/09/12 01:37:15;;;;;;;6.25;5.65;;;16.80;99.90;;;;;;5067216;28;20181;-79
2021/09/12 01:39:41;;;;;;;5.25;4.75;;;16.80;99.90;;;;;;5067115;28;20711;-79
2021/09/12 01:42:07;;;;;;;4.78;4.30;;;16.80;99.90;;;;;;5066066;28;20205;-79
2021/09/12 01:44:32;;;;;;;5.00;4.50;;;16.90;99.90;;;;;;5066843;28;20201;-77
2021/09/12 01:46:58;;;;;;;5.88;5.18;;;16.90;99.90;;;;;;5057538;28;20198;-77
2021/09/12 01:49:25;;;;;;;5.25;4.75;;;16.90;99.90;;;;;;5066445;28;20561;-80
2021/09/12 01:51:52;;;;;;;5.10;4.22;;;16.90;99.90;;;;;;5066043;28;20374;-79
2021/09/12 01:54:18;;;;;;;6.25;4.95;;;16.90;99.90;;;;;;5067590;28;20242;-76
2021/09/12 01:56:45;;;;;;;5.45;4.95;;;16.80;99.90;;;;;;5066927;28;20181;-78
2021/09/12 01:59:12;;;;;;;4.90;4.40;;;16.90;99.90;;;;;;5058670;28;20209;-77
2021/09/12 02:01:38;;;;;;;5.88;4.25;;;16.90;99.90;;;;;;5068855;28;20493;-77
2021/09/12 02:04:04;;;;;;;5.78;5.05;;;16.90;99.90;;;;;;5073952;28;20262;-77
2021/09/12 02:06:29;;;;;;;6.63;5.05;;;16.90;99.90;;;;;;5066387;28;20545;-77
2021/09/12 02:08:55;;;;;;;5.68;5.05;;;16.90;99.90;;;;;;5057812;28;20185;-76
2021/09/12 02:11:21;;;;;;;5.53;5.03;;;16.90;99.90;;;;;;5056383;28;20577;-79
2021/09/12 02:13:46;;;;;;;5.10;4.60;;;16.90;99.90;;;;;;5066555;28;20312;-79
2021/09/12 02:16:12;;;;;;;6.28;4.97;;;16.90;99.90;;;;;;5056259;28;20177;-79
2021/09/12 02:18:38;;;;;;;5.85;4.75;;;16.90;99.90;;;;;;5072381;28;20225;-77
2021/09/12 02:21:03;;;;;;;7.03;5.35;;;16.90;99.90;;;;;;5065606;28;20228;-77
2021/09/12 02:23:29;;;;;;;6.55;5.55;;;16.90;99.90;;;;;;5072740;28;20259;-79
2021/09/12 02:25:55;;;;;;;5.18;4.68;;;16.90;99.90;;;;;;5052845;28;20264;-79
2021/09/12 02:28:21;;;;;;;6.10;5.30;;;16.90;99.90;;;;;;5065915;28;20185;-79
2021/09/12 02:30:47;;;;;;;6.10;5.50;;;17.00;99.90;;;;;;5065416;28;20208;-79
2021/09/12 02:33:12;;;;;;;6.78;5.57;;;17.00;99.90;;;;;;5064976;28;20189;-79
2021/09/12 02:35:38;;;;;;;7.03;6.18;;;17.00;99.90;;;;;;5066284;28;20272;-78
2021/09/12 02:38:04;;;;;;;8.23;7.03;;;16.90;99.90;;;;;;5064102;28;20569;-78
2021/09/12 02:40:29;;;;;;;7.57;6.88;;;17.00;99.90;;;;;;5072770;28;20296;-78
2021/09/12 02:42:55;;;;;;;7.97;6.38;;;17.00;99.90;;;;;;5069523;28;20213;-77
2021/09/12 02:45:21;;;;;;;7.80;7.00;;;17.00;99.90;;;;;;5076556;28;20629;-79
2021/09/12 02:47:46;;;;;;;8.00;6.60;;;17.00;99.90;;;;;;5065726;28;20219;-79
2021/09/12 02:50:12;;;;;;;6.82;6.13;;;17.00;99.90;;;;;;5065374;28;20210;-81
2021/09/12 02:52:38;;;;;;;8.00;7.03;;;17.00;99.90;;;;;;5064652;28;20268;-77
2021/09/12 02:55:05;;;;;;;8.10;5.78;;;16.90;99.90;;;;;;5065431;28;20185;-78
2021/09/12 02:57:31;;;;;;;7.07;5.93;;;16.90;99.90;;;;;;5065669;28;20185;-76
2021/09/12 02:59:58;;;;;;;7.20;5.90;;;16.90;99.90;;;;;;5064742;28;20178;-79
2021/09/12 03:02:24;;;;;;;7.90;6.25;;;16.90;99.90;;;;;;5055862;28;20204;-78
2021/09/12 03:04:50;;;;;;;8.68;6.05;;;16.80;99.90;;;;;;5064295;28;20190;-78
2021/09/12 03:07:16;;;;;;;8.68;7.25;;;16.90;99.90;;;;;;5063171;28;20185;-78
2021/09/12 03:09:41;;;;;;;8.05;7.13;;;16.80;99.90;;;;;;5065354;28;20266;-79
2021/09/12 03:12:07;;;;;;;7.85;6.68;;;16.70;99.90;;;;;;5064697;28;20206;-79
2021/09/12 03:14:33;;;;;;;9.43;7.68;;;16.70;99.90;;;;;;5074632;28;20767;-79
2021/09/12 03:16:59;;;;;;;9.48;7.65;;;16.60;99.90;;;;;;5062295;28;20201;-77
2021/09/12 03:19:24;;;;;;;8.70;7.30;;;16.60;99.90;;;;;;5062514;28;20213;-79
2021/09/12 03:21:50;;;;;;;7.93;6.82;;;16.50;99.90;;;;;;5063349;28;20197;-79
2021/09/12 03:24:15;;;;;;;10.48;8.07;;;16.50;99.90;;;;;;5064040;28;20193;-78
2021/09/12 03:26:41;;;;;;;13.07;9.00;;;16.60;99.90;;;;;;5064792;28;20178;-79
2021/09/12 03:29:07;;;;;;;9.80;8.55;;;16.60;99.90;;;;;;5064231;28;20254;-78
2021/09/12 03:31:32;;;;;;;10.15;8.82;;;16.60;99.90;;;;;;5061519;28;20620;-79
2021/09/12 03:33:58;;;;;;;9.93;8.85;;;16.60;99.90;;;;;;5061065;28;20204;-76
2021/09/12 03:36:24;;;;;;;11.95;9.23;;;16.70;99.90;;;;;;5062614;28;20181;-77
2021/09/12 03:38:49;;;;;;;11.40;9.15;;;16.70;99.90;;;;;;5063167;28;20568;-80
2021/09/12 03:41:15;;;;;;;11.80;9.38;;;16.70;99.90;;;;;;5063464;28;20271;-78
2021/09/12 03:43:41;;;;;;;12.13;9.13;;;16.70;99.90;;;;;;5064091;28;20181;-77
2021/09/12 03:46:06;;;;;;;9.88;8.70;;;16.80;99.90;;;;;;5064482;28;20493;-77
2021/09/12 03:48:32;;;;;;;11.55;9.98;;;16.80;99.90;;;;;;5063962;28;20264;-77
2021/09/12 03:50:58;;;;;;;10.48;9.32;;;16.80;99.90;;;;;;5063877;28;20214;-78
2021/09/12 03:53:23;;;;;;;11.98;9.48;;;16.80;99.90;;;;;;5072396;28;20264;-79
2021/09/12 03:55:49;;;;;;;14.07;9.48;;;16.70;99.90;;;;;;5068621;28;20189;-78
2021/09/12 03:58:15;;;;;;;11.52;9.20;;;16.70;99.90;;;;;;5063836;28;20201;-79
2021/09/12 04:00:40;;;;;;;11.35;9.40;;;16.70;99.90;;;;;;5068252;28;20201;-77
2021/09/12 04:03:06;;;;;;;10.73;8.68;;;16.70;99.90;;;;;;5063775;28;20229;-76
2021/09/12 04:05:32;;;;;;;11.55;8.55;;;16.70;99.90;;;;;;5052170;28;20177;-78
2021/09/12 04:07:57;;;;;;;11.10;8.77;;;16.70;99.90;;;;;;5071330;28;20273;-79
2021/09/12 04:10:23;;;;;;;11.20;8.80;;;16.80;99.90;;;;;;5063357;28;20208;-77
2021/09/12 04:12:49;;;;;;;10.65;8.90;;;16.80;99.90;;;;;;5055889;28;20267;-77
2021/09/12 04:15:15;;;;;;;9.90;8.55;;;16.80;99.90;;;;;;5063805;28;20189;-79
2021/09/12 04:17:41;;;;;;;10.13;8.73;;;16.80;99.90;;;;;;5063762;28;20549;-78
2021/09/12 04:20:07;;;;;;;10.90;8.48;;;16.80;99.90;;;;;;5051932;28;20220;-78
2021/09/12 04:22:34;;;;;;;10.13;8.35;;;16.80;99.90;;;;;;5062442;28;20207;-78
2021/09/12 04:24:59;;;;;;;9.40;7.60;;;16.90;99.90;;;;;;5063697;28;20180;-76
2021/09/12 04:27:26;;;;;;;9.23;7.45;;;16.90;99.90;;;;;;5068738;28;20181;-78
2021/09/12 04:29:52;;;;;;;8.15;7.25;;;16.90;99.90;;;;;;5063463;28;20705;-77
2021/09/12 04:32:17;;;;;;;7.88;7.18;;;16.80;99.90;;;;;;5063977;28;20193;-77
2021/09/12 04:34:46;;;;;;;8.32;6.97;;;16.80;99.90;;;;;;5057711;28;20181;-77
2021/09/12 04:37:11;;;;;;;7.55;6.80;;;16.80;99.90;;;;;;5067356;28;20188;-79
2021/09/12 04:39:37;;;;;;;8.02;6.97;;;16.80;99.90;;;;;;5066626;28;20209;-78
2021/09/12 04:42:03;;;;;;;7.72;6.93;;;16.80;99.90;;;;;;5066426;28;20209;-79
2021/09/12 04:44:29;;;;;;;8.63;7.00;;;16.70;99.90;;;;;;5067608;28;20181;-76
2021/09/12 04:46:55;;;;;;;7.40;5.97;;;16.70;99.90;;;;;;5067109;28;20683;-77
2021/09/12 04:49:20;;;;;;;7.13;6.43;;;16.80;99.90;;;;;;5052897;28;20231;-78
2021/09/12 04:51:46;;;;;;;7.57;6.32;;;16.70;99.90;;;;;;5066338;28;20745;-76
2021/09/12 04:54:12;;;;;;;6.65;6.03;;;16.80;99.90;;;;;;5067415;28;20181;-80
2021/09/12 04:56:38;;;;;;;7.03;5.88;;;16.80;99.90;;;;;;5066770;28;20185;-77
2021/09/12 04:59:03;;;;;;;6.97;6.28;;;16.80;99.90;;;;;;5067024;28;20214;-78
2021/09/12 05:01:29;;;;;;;6.55;5.72;;;16.80;99.90;;;;;;5065581;28;20259;-77
2021/09/12 05:03:55;;;;;;;6.85;6.20;;;16.90;99.90;;;;;;5055059;28;20216;-78
2021/09/12 05:06:21;;;;;;;6.18;5.57;;;16.90;99.90;;;;;;5066800;28;20276;-76
2021/09/12 05:08:46;;;;;;;6.45;5.80;;;16.90;99.90;;;;;;5066680;28;20585;-76
2021/09/12 05:11:12;;;;;;;6.90;6.00;;;16.90;99.90;;;;;;5056471;28;20201;-80
2021/09/12 05:13:38;;;;;;;6.95;5.78;;;16.90;99.90;;;;;;5066497;28;20230;-79
2021/09/12 05:16:04;;;;;;;6.30;5.70;;;16.90;99.90;;;;;;5066941;28;20284;-77
2021/09/12 05:18:31;;;;;;;6.60;5.53;;;16.90;99.90;;;;;;5066269;28;20282;-76
2021/09/12 05:20:56;;;;;;;6.45;4.93;;;16.90;99.90;;;;;;5065902;28;20734;-79
2021/09/12 05:23:23;;;;;;;6.53;5.93;;;16.90;99.90;;;;;;5055170;28;20268;-77
2021/09/12 05:25:50;;;;;;;6.28;5.53;;;16.90;99.90;;;;;;5066491;28;20625;-78
2021/09/12 05:28:16;;;;;;;6.00;5.40;;;16.90;99.90;;;;;;5066572;28;20213;-78
2021/09/12 05:30:42;;;;;;;6.32;5.72;;;16.90;99.90;;;;;;5065406;28;20193;-77
2021/09/12 05:33:08;;;;;;;6.28;5.68;;;17.00;99.90;;;;;;5066447;28;20608;-77
2021/09/12 05:35:33;;;;;;;6.38;5.78;;;17.00;99.90;;;;;;5066384;28;20181;-79
2021/09/12 05:37:59;;;;;;;5.90;5.30;;;17.00;99.90;;;;;;5066343;28;20213;-77
2021/09/12 05:40:25;;;;;;;5.15;4.68;;;17.00;99.90;;;;;;5065852;28;20788;-79
2021/09/12 05:42:50;;;;;;;6.35;4.80;;;17.00;99.90;;;;;;5057013;28;20178;-76
2021/09/12 05:45:16;;;;;;;6.07;5.47;;;17.00;99.90;;;;;;5066552;28;20184;-77
2021/09/12 05:47:42;;;;;;;6.15;5.53;;;17.00;99.90;;;;;;5065759;28;20644;-78
2021/09/12 05:50:08;;;;;;;5.07;4.57;;;17.00;99.90;;;;;;5057649;28;20202;-78
2021/09/12 05:52:35;;;;;;;5.40;4.90;;;17.10;99.90;;;;;;5065111;28;20181;-77
2021/09/12 05:55:00;;;;;;;5.47;4.95;;;17.20;99.90;;;;;;5055245;28;20192;-79
2021/09/12 05:57:26;;;;;;;5.47;4.97;;;17.30;99.90;;;;;;5065938;28;20185;-78
2021/09/12 05:59:52;;;;;;;5.15;4.75;;;17.30;99.90;;;;;;5072584;28;20644;-78
2021/09/12 06:02:18;;;;;;;4.68;4.28;;;17.30;99.90;;;;;;5065416;28;20205;-79
2021/09/12 06:04:44;;;;;;;4.50;4.10;;;17.40;99.90;;;;;;5065665;28;20709;-78
2021/09/12 06:07:10;;;;;;;5.35;4.50;;;17.50;99.90;;;;;;5053330;28;20257;-79
2021/09/12 06:09:38;;;;;;;4.85;4.35;;;17.50;99.90;;;;;;5065301;28;20641;-77
2021/09/12 06:12:05;;;;;;;4.60;4.20;;;17.50;99.90;;;;;;5064724;28;20213;-77
2021/09/12 06:14:31;;;;;;;5.35;4.85;;;17.60;99.90;;;;;;5065704;28;20186;-80
2021/09/12 06:16:57;;;;;;;4.88;4.47;;;17.60;99.90;;;;;;5065782;28;20632;-77
2021/09/12 06:19:22;;;;;;;4.70;3.88;;;17.70;99.90;;;;;;5065530;28;20315;-78
2021/09/12 06:21:48;;;;;;;4.45;4.05;;;17.70;99.90;;;;;;5068125;28;20620;-79
2021/09/12 06:24:13;;;;;;;4.32;3.80;;;17.90;99.90;;;;;;5055468;28;20201;-79
2021/09/12 06:26:39;;;;;;;4.10;3.70;;;18.00;99.90;;;;;;5065734;28;20182;-76
2021/09/12 06:29:05;;;;;;;4.53;4.13;;;18.10;99.90;;;;;;5058794;28;20211;-80
2021/09/12 06:31:30;;;;;;;3.90;3.60;;;18.20;99.90;;;;;;5064917;28;20660;-79
2021/09/12 06:33:56;;;;;;;4.22;3.83;;;18.20;99.90;;;;;;5065444;28;20190;-80
2021/09/12 06:36:22;;;;;;;4.40;4.00;;;18.40;99.90;;;;;;5065882;28;20192;-76
2021/09/12 06:38:47;;;;;;;4.47;4.07;;;18.50;99.90;;;;;;5065110;28;20710;-79
2021/09/12 06:41:13;;;;;;;4.13;3.70;;;18.50;99.90;;;;;;5064385;28;20629;-79
2021/09/12 06:43:39;;;;;;;4.05;3.65;;;18.70;99.90;;;;;;5054250;28;20633;-78
2021/09/12 06:46:05;;;;;;;3.95;3.65;;;18.80;99.90;;;;;;5058585;28;20189;-77
2021/09/12 06:48:30;;;;;;;4.10;3.70;;;18.90;99.90;;;;;;5064866;28;20181;-77
2021/09/12 06:50:57;;;;;;;5.85;4.22;;;18.90;99.90;;;;;;5057787;28;20205;-78
2021/09/12 06:53:24;;;;;;;4.38;3.97;;;18.80;99.90;;;;;;5064920;28;20185;-77
2021/09/12 06:55:49;;;;;;;4.32;3.92;;;18.80;99.90;;;;;;5064051;28;20189;-76
2021/09/12 06:58:16;;;;;;;4.32;3.88;;;18.80;99.90;;;;;;5064683;28;20205;-80
2021/09/12 07:00:42;;;;;;;4.63;4.20;;;18.70;99.90;;;;;;5064060;28;20280;-80
2021/09/12 07:03:07;;;;;;;4.47;4.07;;;18.70;99.90;;;;;;5064942;28;20288;-76
2021/09/12 07:05:33;;;;;;;5.97;4.40;;;18.60;99.90;;;;;;5063916;28;20181;-80
2021/09/12 07:07:59;;;;;;;4.55;4.15;;;18.80;99.90;;;;;;5064352;28;20200;-78
2021/09/12 07:10:25;;;;;;;4.97;4.47;;;19.00;99.90;;;;;;5053385;28;20241;-80
2021/09/12 07:12:51;;;;;;;5.07;4.57;;;19.30;99.90;;;;;;5063827;28;20213;-79
2021/09/12 07:15:17;;;;;;;5.30;4.80;;;19.50;99.90;;;;;;5064616;28;20239;-77
2021/09/12 07:17:43;;;;;;;5.38;4.85;;;19.70;99.90;;;;;;5064227;28;20190;-78
2021/09/12 07:20:09;;;;;;;5.45;4.95;;;19.60;99.90;;;;;;5074982;28;20705;-78
2021/09/12 07:22:35;;;;;;;6.05;5.45;;;19.50;99.90;;;;;;5063040;28;20181;-81
2021/09/12 07:25:01;;;;;;;6.47;5.55;;;19.50;99.90;;;;;;5053276;28;20192;-78
2021/09/12 07:27:27;;;;;;;6.15;5.40;;;19.30;99.90;;;;;;5064442;28;20563;-79
2021/09/12 07:29:52;;;;;;;6.97;5.70;;;19.40;99.90;;;;;;5064060;28;20174;-79
2021/09/12 07:32:18;;;;;;;6.18;5.50;;;19.50;99.90;;;;;;5053349;28;20236;-76
2021/09/12 07:34:43;;;;;;;6.22;5.32;;;19.50;99.90;;;;;;5064460;28;20208;-78
2021/09/12 07:37:09;;;;;;;7.30;5.30;;;19.60;99.90;;;;;;5062405;28;20220;-78
2021/09/12 07:39:35;;;;;;;7.10;5.93;;;19.70;99.90;;;;;;5054476;28;20673;-76
2021/09/12 07:42:01;;;;;;;7.55;5.40;;;19.80;99.90;;;;;;5062819;28;20284;-78
2021/09/12 07:44:27;;;;;;;7.05;6.00;;;19.90;99.90;;;;;;5048420;28;20181;-76
2021/09/12 07:46:53;;;;;;;6.10;5.50;;;19.90;99.90;;;;;;5065671;28;20184;-77
2021/09/12 07:49:19;;;;;;;7.38;5.90;;;19.90;99.90;;;;;;5054610;28;20189;-77
2021/09/12 07:51:44;;;;;;;8.43;6.57;;;20.10;99.90;;;;;;5062648;28;20248;-76
2021/09/12 07:54:10;;;;;;;7.78;6.43;;;20.30;99.90;;;;;;5060318;28;20197;-76
2021/09/12 07:56:35;;;;;;;9.50;6.47;;;20.60;99.90;;;;;;5063271;28;20185;-77
2021/09/12 07:59:01;;;;;;;8.00;6.75;;;21.00;99.90;;;;;;5069024;28;20647;-77
2021/09/12 08:01:27;;;;;;;7.40;6.40;;;21.30;99.90;;;;;;5062221;28;20530;-78
2021/09/12 08:03:52;;;;;;;7.25;5.65;;;21.60;99.90;;;;;;5063408;28;20178;-79
2021/09/12 08:06:18;;;;;;;7.45;6.03;;;21.70;99.90;;;;;;5069164;28;20263;-79
2021/09/12 08:08:43;;;;;;;8.00;6.00;;;21.90;99.90;;;;;;5067659;28;20273;-79
2021/09/12 08:11:09;;;;;;;7.88;6.55;;;21.80;99.90;;;;;;5066647;28;20240;-78
2021/09/12 08:13:35;;;;;;;7.40;6.40;;;21.80;99.90;;;;;;5056966;28;20181;-79
2021/09/12 08:16:01;;;;;;;7.68;5.90;;;21.70;99.90;;;;;;5067141;28;20187;-79
2021/09/12 08:18:27;;;;;;;7.90;6.32;;;21.80;99.90;;;;;;5057212;28;20201;-78
2021/09/12 08:20:53;;;;;;;7.97;5.35;;;21.80;99.90;;;;;;5066377;28;20216;-78
2021/09/12 08:23:18;;;;;;;7.13;5.93;;;21.90;99.90;;;;;;5067142;28;20318;-77
2021/09/12 08:25:46;;;;;;;7.80;6.18;;;22.10;99.90;;;;;;5067191;28;20181;-78
2021/09/12 08:28:11;;;;;;;6.10;5.50;;;22.10;99.90;;;;;;5057549;28;20185;-76
2021/09/12 08:30:37;;;;;;;5.75;5.10;;;22.10;99.90;;;;;;5065986;28;20652;-79
2021/09/12 08:33:09;;;;;;;7.70;6.05;;;22.10;99.90;;;;;;5058685;28;20197;-78
2021/09/12 08:35:35;;;;;;;10.75;6.35;;;22.20;99.90;;;;;;5065497;28;20822;-78
2021/09/12 08:38:00;;;;;;;6.60;5.40;;;22.20;99.90;;;;;;5063160;28;20432;-76
2021/09/12 08:40:26;;;;;;;7.03;5.88;;;22.20;99.90;;;;;;5066823;28;20662;-79
2021/09/12 08:42:52;;;;;;;7.53;6.72;;;22.30;99.90;;;;;;5066134;28;20174;-77
2021/09/12 08:45:18;;;;;;;7.20;6.15;;;22.50;99.90;;;;;;5066910;28;20174;-79
2021/09/12 08:47:44;;;;;;;5.72;4.90;;;22.90;99.90;;;;;;5066629;28;20615;-78
2021/09/12 08:50:10;;;;;;;7.30;6.28;;;23.10;99.90;;;;;;5066391;28;20209;-79
2021/09/12 08:52:36;;;;;;;6.35;5.70;;;23.30;99.90;;;;;;5066050;28;20186;-77
2021/09/12 08:55:01;;;;;;;6.70;6.00;;;23.50;99.90;;;;;;5066594;28;20441;-79
2021/09/12 08:57:27;;;;;;;7.18;6.15;;;23.60;99.90;;;;;;5066701;28;20260;-78
2021/09/12 08:59:52;;;;;;;7.10;6.05;;;23.70;99.90;;;;;;5066002;28;20308;-78
2021/09/12 09:02:27;;;;;;;8.52;6.13;;;23.50;99.90;;;;;;5071550;28;20334;-80
2021/09/12 09:05:01;;;;;;;6.75;5.43;;;23.50;99.90;;;;;;5066220;28;20181;-79
2021/09/12 09:07:30;;;;;;;5.65;5.15;;;23.40;99.90;;;;;;5058859;28;20265;-78
2021/09/12 09:09:57;;;;;;;8.55;6.07;;;23.60;99.90;;;;;;5066321;28;20185;-77
2021/09/12 09:12:34;;;;;;;6.38;5.45;;;23.60;99.90;;;;;;5069355;28;20437;-77
2021/09/12 09:15:08;;;;;;;6.30;5.00;;;23.40;99.90;;;;;;5065806;28;20213;-77
2021/09/12 09:17:43;;;;;;;6.55;5.85;;;23.20;99.90;;;;;;5065623;28;20222;-78
2021/09/12 09:20:12;;;;;;;6.00;4.82;;;23.00;99.90;;;;;;5065961;28;20223;-78
2021/09/12 09:22:43;;;;;;;5.72;5.13;;;22.70;99.90;;;;;;5065362;28;20178;-79
2021/09/12 09:25:22;;;;;;;5.25;4.75;;;22.50;99.90;;;;;;5066280;28;20209;-78
2021/09/12 09:28:00;;;;;;;5.72;5.10;;;22.30;99.90;;;;;;5065950;28;20176;-75
2021/09/12 09:30:29;;;;;;;6.70;4.95;;;22.10;99.90;;;;;;5065849;28;20205;-77
2021/09/12 09:33:24;;;;;;;6.30;5.50;;;22.20;99.90;;;;;;5065329;28;20582;-76
2021/09/12 09:36:02;;;;;;;7.32;6.07;;;22.10;99.90;;;;;;5065951;28;20178;-78
2021/09/12 09:38:30;;;;;;;7.07;5.60;;;21.80;99.90;;;;;;5065512;28;20496;-77
2021/09/12 09:41:06;;;;;;;5.75;4.82;;;21.50;99.90;;;;;;5053985;28;20366;-77
2021/09/12 09:43:43;;;;;;;2.85;2.25;;;21.20;99.90;;;;;;5051604;28;20204;-77
2021/09/12 09:46:30;;;;;;;2.45;2.25;;;20.90;99.90;;;;;;5065443;28;20192;-78
2021/09/12 09:49:00;;;;;;;2.60;2.10;;;20.70;99.90;;;;;;5065315;28;20616;-77
2021/09/12 09:51:27;;;;;;;3.15;2.60;;;20.50;99.90;;;;;;5053943;28;20210;-77
2021/09/12 09:53:52;;;;;;;3.33;2.92;;;20.60;99.90;;;;;;5065058;28;20251;-78
2021/09/12 09:56:19;;;;;;;3.55;3.08;;;20.70;99.90;;;;;;5065486;28;20189;-77
2021/09/12 09:58:45;;;;;;;3.22;2.92;;;20.60;99.90;;;;;;5065430;28;20197;-78
2021/09/12 10:01:11;;;;;;;5.25;3.40;;;20.70;99.90;;;;;;5064377;28;20205;-77
2021/09/12 10:03:37;;;;;;;3.85;3.15;;;20.90;99.90;;;;;;5065063;28;20996;-76
2021/09/12 10:06:03;;;;;;;3.08;2.78;;;20.90;99.90;;;;;;5061813;28;20593;-76
2021/09/12 10:08:30;;;;;;;3.72;2.88;;;21.10;99.90;;;;;;5070935;28;20196;-76
2021/09/12 10:10:57;;;;;;;3.20;2.85;;;21.20;99.90;;;;;;5064448;28;20229;-78
2021/09/12 10:13:25;;;;;;;5.30;2.97;;;21.30;99.90;;;;;;5063453;28;20702;-77
2021/09/12 10:15:56;;;;;;;3.75;3.30;;;21.40;99.90;;;;;;5064870;28;20238;-77
2021/09/12 10:18:28;;;;;;;3.38;3.00;;;21.60;99.90;;;;;;5070554;28;20747;-77
2021/09/12 10:20:54;;;;;;;5.60;3.95;;;21.50;99.90;;;;;;5064488;28;20656;-78
2021/09/12 10:23:26;;;;;;;4.85;3.20;;;21.40;99.90;;;;;;5056162;28;20221;-76
2021/09/12 10:25:58;;;;;;;3.75;3.25;;;21.40;99.90;;;;;;5065110;28;20569;-79
2021/09/12 10:28:29;;;;;;;3.53;3.22;;;21.50;99.90;;;;;;5064820;28;20185;-78
2021/09/12 10:30:55;;;;;;;4.13;3.28;;;21.50;99.90;;;;;;5062850;28;20695;-78
2021/09/12 10:33:26;;;;;;;4.57;3.33;;;21.90;99.90;;;;;;5064620;28;20242;-76
2021/09/12 10:35:59;;;;;;;4.70;3.35;;;22.20;99.90;;;;;;5064569;28;20174;-78
2021/09/12 10:38:30;;;;;;;4.30;3.45;;;22.40;99.90;;;;;;5051631;28;20198;-77
2021/09/12 10:40:55;;;;;;;5.03;3.70;;;22.40;99.90;;;;;;5063826;28;20988;-78
2021/09/12 10:43:24;;;;;;;2.88;2.67;;;22.40;99.90;;;;;;5053998;28;20178;-76
2021/09/12 10:46:05;;;;;;;2.83;2.60;;;22.50;99.90;;;;;;5064230;28;20437;-78
2021/09/12 10:48:32;;;;;;;2.45;2.25;;;22.60;99.90;;;;;;5064122;28;20263;-78
2021/09/12 10:51:03;;;;;;;5.15;3.03;;;22.60;99.90;;;;;;5063788;28;20212;-78
2021/09/12 10:53:44;;;;;;;2.42;2.22;;;22.60;99.90;;;;;;5050909;28;20190;-78
2021/09/12 10:56:10;;;;;;;1.83;1.70;;;22.50;99.90;;;;;;5064197;28;20186;-78
2021/09/12 10:58:35;;;;;;;1.95;1.70;;;22.40;99.90;;;;;;5064185;28;20208;-77
2021/09/12 11:01:02;;;;;;;2.28;2.00;;;22.40;99.90;;;;;;5063651;28;20254;-78
2021/09/12 11:03:29;;;;;;;1.67;1.58;;;22.40;99.90;;;;;;5063761;28;20244;-78
2021/09/12 11:05:55;;;;;;;1.92;1.65;;;22.40;99.90;;;;;;5055952;28;20170;-79
2021/09/12 11:08:35;;;;;;;2.13;1.80;;;22.50;99.90;;;;;;5065199;28;20186;-77
2021/09/12 11:11:02;;;;;;;2.13;1.80;;;22.30;99.90;;;;;;5062978;28;20201;-77
2021/09/12 11:13:28;;;;;;;1.75;1.65;;;22.20;99.90;;;;;;5069565;28;20250;-77
2021/09/12 11:16:07;;;;;;;2.08;1.75;;;22.20;99.90;;;;;;5065265;28;20186;-80
2021/09/12 11:18:46;;;;;;;2.53;1.70;;;22.10;99.90;;;;;;5071586;28;20213;-77
2021/09/12 11:21:26;;;;;;;1.90;1.58;;;22.20;99.90;;;;;;5064241;28;20197;-78
2021/09/12 11:24:06;;;;;;;1.67;1.58;;;22.30;99.90;;;;;;5070758;28;20218;-77
2021/09/12 11:27:06;;;;;;;2.53;1.73;;;22.20;99.90;;;;;;5067996;28;20181;-77
2021/09/12 11:29:36;;;;;;;1.80;1.70;;;22.40;99.90;;;;;;5065454;28;20274;-77
2021/09/12 11:32:14;;;;;;;2.75;1.80;;;22.50;99.90;;;;;;5064330;28;20209;-78
2021/09/12 11:34:49;;;;;;;3.17;2.10;;;22.70;99.90;;;;;;5071968;28;20195;-79
2021/09/12 11:37:16;;;;;;;2.00;1.75;;;22.60;99.90;;;;;;5069851;28;20196;-79
2021/09/12 11:39:47;;;;;;;2.40;1.70;;;22.50;99.90;;;;;;5051230;28;20238;-75
2021/09/12 11:42:15;;;;;;;1.70;1.55;;;22.30;99.90;;;;;;5063191;28;20182;-77
2021/09/12 11:44:46;;;;;;;2.22;1.77;;;22.10;99.90;;;;;;5054207;28;20185;-77
2021/09/12 11:47:20;;;;;;;2.20;1.98;;;22.00;99.90;;;;;;5046281;28;20189;-77
2021/09/12 11:50:01;;;;;;;2.08;1.85;;;22.00;99.90;;;;;;5063862;28;20177;-78
2021/09/12 11:52:38;;;;;;;2.75;1.80;;;22.10;99.90;;;;;;5062704;28;20665;-76
2021/09/12 11:55:28;;;;;;;1.65;1.48;;;22.30;99.90;;;;;;5054442;28;20503;-76
2021/09/12 11:58:04;;;;;;;1.40;1.30;;;22.70;99.90;;;;;;5063956;28;20193;-78
2021/09/12 12:00:30;;;;;;;1.45;1.25;;;22.90;99.90;;;;;;5062788;28;20193;-77
2021/09/12 12:02:57;;;;;;;1.27;1.17;;;23.10;99.90;;;;;;5063535;28;20246;-76
2021/09/12 12:05:24;;;;;;;1.10;1.00;;;23.20;99.90;;;;;;5064173;28;20247;-78
2021/09/12 12:07:52;;;;;;;1.50;1.25;;;23.30;99.90;;;;;;5069601;28;20185;-80
2021/09/12 12:10:35;;;;;;;2.22;1.35;;;23.40;99.90;;;;;;5052930;28;20197;-80
2021/09/12 12:13:01;;;;;;;2.00;1.33;;;23.50;99.90;;;;;;5061671;28;20270;-77
2021/09/12 12:15:39;;;;;;;1.88;1.63;;;23.50;99.90;;;;;;5067400;28;20221;-79
2021/09/12 12:18:10;;;;;;;2.40;1.88;;;23.50;99.90;;;;;;5064246;28;20228;-79
2021/09/12 12:20:36;;;;;;;3.25;1.88;;;23.30;99.90;;;;;;5062865;28;20281;-82
2021/09/12 12:23:24;;;;;;;2.40;2.20;;;23.40;99.90;;;;;;5055913;28;20767;-79
2021/09/12 12:25:51;;;;;;;3.33;2.30;;;23.30;99.90;;;;;;5064821;28;20235;-81
2021/09/12 12:28:21;;;;;;;3.13;2.40;;;23.50;99.90;;;;;;5070797;28;20531;-78
2021/09/12 12:31:15;;;;;;;2.25;1.77;;;23.50;99.90;;;;;;5063742;28;20782;-79
2021/09/12 12:33:44;;;;;;;3.35;2.22;;;23.80;99.90;;;;;;5063584;28;20173;-84
2021/09/12 12:36:11;;;;;;;2.38;2.17;;;23.80;99.90;;;;;;5067981;28;20227;-77
2021/09/12 12:38:38;;;;;;;2.90;2.60;;;23.90;99.90;;;;;;5053707;28;20700;-82
2021/09/12 12:41:15;;;;;;;2.72;2.13;;;23.80;99.90;;;;;;5064051;28;20734;-77
2021/09/12 12:43:41;;;;;;;3.70;2.67;;;23.70;99.90;;;;;;5063988;28;20177;-76
2021/09/12 12:46:08;;;;;;;2.80;2.60;;;23.50;99.90;;;;;;5060257;28;21126;-79
2021/09/12 12:48:34;;;;;;;3.17;2.47;;;23.30;99.90;;;;;;5051994;28;20273;-79